Time;durP1;ratioP1;P1;durP2;ratioP2;P2;SDS_P1;SDS_P2;PMS_P1;PMS_P2;Temp;Humidity;BMP_temperature;BMP_pressure;BME280_temperature;BME280_humidity;BME280_pressure;Samples;Min_cycle;Max_cycle;Signal;HPM_P1;HPM_P2
2021/07/12 00:00:33;;;;;;;3.85;2.30;;;;;;;;;;6942439;28;20050;-87
2021/07/12 00:03:54;;;;;;;5.00;2.10;;;;;;;;;;6929109;28;20048;-88
2021/07/12 00:07:14;;;;;;;3.25;2.20;;;;;;;;;;6941896;28;20084;-87
2021/07/12 00:10:36;;;;;;;3.67;2.25;;;;;;;;;;6941202;28;20177;-87
2021/07/12 00:13:56;;;;;;;2.20;2.00;;;;;;;;;;6941164;28;20041;-87
2021/07/12 00:17:16;;;;;;;2.97;2.38;;;;;;;;;;6940315;28;20045;-87
2021/07/12 00:20:37;;;;;;;4.72;1.90;;;;;;;;;;6939509;28;20129;-86
2021/07/12 00:23:58;;;;;;;3.15;2.10;;;;;;;;;;6922543;28;20056;-89
2021/07/12 00:27:19;;;;;;;2.60;2.15;;;;;;;;;;6940812;28;20053;-88
2021/07/12 00:30:39;;;;;;;3.78;1.92;;;;;;;;;;6938438;28;20046;-87
2021/07/12 00:33:59;;;;;;;7.53;2.30;;;;;;;;;;6937685;28;20046;-87
2021/07/12 00:37:20;;;;;;;5.88;2.28;;;;;;;;;;6939820;28;20535;-87
2021/07/12 00:40:40;;;;;;;2.72;2.08;;;;;;;;;;6940721;28;20076;-88
2021/07/12 00:44:01;;;;;;;3.03;2.05;;;;;;;;;;6940567;28;20049;-88
2021/07/12 00:47:21;;;;;;;2.22;2.03;;;;;;;;;;6939935;28;20056;-88
2021/07/12 00:50:43;;;;;;;5.63;2.00;;;;;;;;;;6940225;28;20137;-88
2021/07/12 00:54:04;;;;;;;2.38;2.05;;;;;;;;;;6906439;28;20057;-88
2021/07/12 00:57:24;;;;;;;2.42;2.03;;;;;;;;;;6921779;28;20048;-89
2021/07/12 01:00:46;;;;;;;4.90;2.00;;;;;;;;;;6938106;28;20054;-89
2021/07/12 01:04:07;;;;;;;4.10;1.95;;;;;;;;;;6939632;28;20538;-88
2021/07/12 01:07:27;;;;;;;2.70;1.90;;;;;;;;;;6936463;28;20053;-87
2021/07/12 01:11:00;;;;;;;2.42;2.00;;;;;;;;;;6940431;28;20111;-88
2021/07/12 01:14:32;;;;;;;3.75;1.95;;;;;;;;;;6939896;28;20046;-89
2021/07/12 01:18:27;;;;;;;2.08;1.70;;;;;;;;;;6926539;28;20045;-89
2021/07/12 01:22:15;;;;;;;1.92;1.70;;;;;;;;;;6906365;28;20045;-88
2021/07/12 01:26:13;;;;;;;2.80;1.92;;;;;;;;;;6940009;28;20041;-88
2021/07/12 01:29:42;;;;;;;4.63;2.03;;;;;;;;;;7033409;22;20124;-87
2021/07/12 01:33:20;;;;;;;1.70;1.60;;;;;;;;;;6966034;28;20079;-87
2021/07/12 01:36:58;;;;;;;2.00;1.80;;;;;;;;;;6962258;28;20481;-86
2021/07/12 01:40:36;;;;;;;3.03;1.77;;;;;;;;;;6952205;28;20045;-87
2021/07/12 01:44:00;;;;;;;2.13;1.80;;;;;;;;;;6965758;28;20048;-87
2021/07/12 01:47:46;;;;;;;2.47;1.70;;;;;;;;;;6967073;28;20053;-89
2021/07/12 01:51:09;;;;;;;2.75;1.80;;;;;;;;;;6953443;28;20048;-90
2021/07/12 01:54:41;;;;;;;1.75;1.65;;;;;;;;;;6965505;28;20049;-88
2021/07/12 01:58:36;;;;;;;3.30;1.70;;;;;;;;;;6965669;28;20104;-89
2021/07/12 02:01:57;;;;;;;2.30;1.75;;;;;;;;;;6965011;28;20425;-89
2021/07/12 02:05:21;;;;;;;1.70;1.60;;;;;;;;;;6965546;28;20548;-89
2021/07/12 02:08:46;;;;;;;1.65;1.55;;;;;;;;;;6966644;28;20037;-89
2021/07/12 02:12:07;;;;;;;3.90;1.75;;;;;;;;;;6956287;28;20095;-89
2021/07/12 02:15:28;;;;;;;2.88;1.45;;;;;;;;;;6971423;28;20076;-89
2021/07/12 02:18:50;;;;;;;2.13;1.58;;;;;;;;;;6968550;28;20045;-90
2021/07/12 02:22:11;;;;;;;2.58;1.63;;;;;;;;;;6966839;28;20403;-87
2021/07/12 02:25:31;;;;;;;1.85;1.58;;;;;;;;;;6970233;28;20534;-86
2021/07/12 02:28:52;;;;;;;1.80;1.58;;;;;;;;;;6955909;28;20049;-87
2021/07/12 02:32:13;;;;;;;1.80;1.70;;;;;;;;;;6971144;28;20045;-87
2021/07/12 02:35:34;;;;;;;1.60;1.50;;;;;;;;;;6945566;28;20091;-87
2021/07/12 02:38:55;;;;;;;1.60;1.50;;;;;;;;;;6958934;28;20045;-86
2021/07/12 02:42:16;;;;;;;2.75;1.67;;;;;;;;;;6970407;28;20041;-87
2021/07/12 02:45:37;;;;;;;1.48;1.38;;;;;;;;;;6969600;28;20056;-86
2021/07/12 02:48:58;;;;;;;1.60;1.45;;;;;;;;;;6969787;28;20483;-86
2021/07/12 02:52:23;;;;;;;1.70;1.60;;;;;;;;;;6969105;28;20068;-87
2021/07/12 02:55:44;;;;;;;1.77;1.67;;;;;;;;;;6969205;28;20049;-87
2021/07/12 02:59:04;;;;;;;3.05;1.50;;;;;;;;;;6970193;28;20059;-88
2021/07/12 03:02:26;;;;;;;3.33;1.55;;;;;;;;;;6970717;28;20065;-86
2021/07/12 03:05:51;;;;;;;2.05;1.50;;;;;;;;;;6957004;28;20100;-87
2021/07/12 03:09:12;;;;;;;1.77;1.42;;;;;;;;;;6969292;28;20211;-87
2021/07/12 03:12:42;;;;;;;2.03;1.45;;;;;;;;;;6968688;28;20445;-89
2021/07/12 03:16:04;;;;;;;1.80;1.70;;;;;;;;;;6956777;28;20509;-88
2021/07/12 03:19:28;;;;;;;1.63;1.50;;;;;;;;;;6968330;28;20041;-88
2021/07/12 03:22:52;;;;;;;1.40;1.30;;;;;;;;;;6968773;28;20049;-89
2021/07/12 03:26:13;;;;;;;1.98;1.50;;;;;;;;;;6955755;28;20049;-89
2021/07/12 03:29:40;;;;;;;1.45;1.35;;;;;;;;;;6968680;28;20055;-87
2021/07/12 03:33:02;;;;;;;1.77;1.55;;;;;;;;;;6968613;28;20491;-88
2021/07/12 03:36:23;;;;;;;2.22;1.58;;;;;;;;;;6942428;28;20045;-91
2021/07/12 03:39:43;;;;;;;1.52;1.30;;;;;;;;;;6936071;28;20139;-89
2021/07/12 03:43:04;;;;;;;1.80;1.60;;;;;;;;;;6951627;28;20049;-89
2021/07/12 03:46:24;;;;;;;1.92;1.70;;;;;;;;;;6968168;28;20053;-88
2021/07/12 03:49:45;;;;;;;1.45;1.35;;;;;;;;;;6959533;28;20384;-91
2021/07/12 03:53:05;;;;;;;1.50;1.40;;;;;;;;;;6928809;28;20057;-91
2021/07/12 03:56:26;;;;;;;1.90;1.63;;;;;;;;;;6952041;28;20049;-90
2021/07/12 03:59:46;;;;;;;1.73;1.35;;;;;;;;;;6929003;28;20088;-89
2021/07/12 04:03:06;;;;;;;1.10;1.10;;;;;;;;;;6941863;28;20171;-89
2021/07/12 04:06:29;;;;;;;1.42;1.33;;;;;;;;;;6968190;28;20041;-87
2021/07/12 04:09:50;;;;;;;1.50;1.23;;;;;;;;;;6965304;28;20106;-88
2021/07/12 04:13:12;;;;;;;1.80;1.30;;;;;;;;;;6961964;28;20088;-89
2021/07/12 04:16:32;;;;;;;1.95;1.42;;;;;;;;;;6960824;28;20079;-89
2021/07/12 04:19:53;;;;;;;1.55;1.40;;;;;;;;;;6969325;28;20045;-89
2021/07/12 04:23:14;;;;;;;1.83;1.30;;;;;;;;;;6966329;28;20072;-89
2021/07/12 04:26:34;;;;;;;1.25;1.20;;;;;;;;;;6969252;28;20049;-90
2021/07/12 04:29:54;;;;;;;1.40;1.30;;;;;;;;;;6966578;28;20046;-90
2021/07/12 04:33:15;;;;;;;1.95;1.50;;;;;;;;;;6968120;28;20139;-91
2021/07/12 04:36:35;;;;;;;1.40;1.23;;;;;;;;;;6916157;28;20056;-90
2021/07/12 04:39:56;;;;;;;1.63;1.25;;;;;;;;;;6965282;28;20049;-88
2021/07/12 04:43:16;;;;;;;2.03;1.40;;;;;;;;;;6951679;28;20091;-88
2021/07/12 04:46:36;;;;;;;1.40;1.30;;;;;;;;;;6969292;28;20045;-90
2021/07/12 04:49:57;;;;;;;1.40;1.30;;;;;;;;;;6946691;28;20096;-87
2021/07/12 04:53:17;;;;;;;1.42;1.30;;;;;;;;;;6964293;28;20543;-89
2021/07/12 04:56:38;;;;;;;1.40;1.30;;;;;;;;;;6932775;28;20064;-89
2021/07/12 04:59:58;;;;;;;1.75;1.30;;;;;;;;;;6962589;28;20045;-89
2021/07/12 05:03:25;;;;;;;1.10;1.10;;;;;;;;;;6965765;28;20456;-90
2021/07/12 05:06:45;;;;;;;1.17;1.15;;;;;;;;;;6938175;28;20061;-90
2021/07/12 05:10:07;;;;;;;1.30;1.20;;;;;;;;;;6945778;28;20041;-89
2021/07/12 05:13:31;;;;;;;1.45;1.35;;;;;;;;;;6964457;28;20049;-90
2021/07/12 05:16:53;;;;;;;1.38;1.27;;;;;;;;;;6953694;28;20057;-88
2021/07/12 05:20:14;;;;;;;2.17;1.20;;;;;;;;;;6947138;28;20122;-88
2021/07/12 05:23:36;;;;;;;1.45;1.35;;;;;;;;;;6959515;28;20475;-89
2021/07/12 05:26:56;;;;;;;1.40;0.98;;;;;;;;;;6961319;28;20068;-89
2021/07/12 05:30:17;;;;;;;1.25;1.15;;;;;;;;;;6963322;28;20049;-88
2021/07/12 05:33:38;;;;;;;1.83;1.55;;;;;;;;;;6935760;28;20158;-88
2021/07/12 05:36:58;;;;;;;1.08;1.08;;;;;;;;;;6964097;28;20581;-88
2021/07/12 05:40:18;;;;;;;1.10;1.00;;;;;;;;;;6962313;28;20056;-86
2021/07/12 05:43:39;;;;;;;1.35;1.10;;;;;;;;;;6940809;28;20055;-87
2021/07/12 05:47:00;;;;;;;1.10;1.00;;;;;;;;;;6971811;28;20076;-87
2021/07/12 05:50:20;;;;;;;2.80;1.30;;;;;;;;;;6955889;28;20077;-81
2021/07/12 05:53:41;;;;;;;1.60;1.30;;;;;;;;;;6968727;28;20478;-80
2021/07/12 05:57:01;;;;;;;1.58;1.30;;;;;;;;;;6971205;28;20045;-89
2021/07/12 06:00:22;;;;;;;1.25;1.13;;;;;;;;;;6969380;28;20071;-88
2021/07/12 06:03:43;;;;;;;1.27;1.17;;;;;;;;;;6950047;28;20048;-88
2021/07/12 06:07:04;;;;;;;2.53;1.25;;;;;;;;;;6970483;28;20080;-89
2021/07/12 06:10:24;;;;;;;1.30;1.25;;;;;;;;;;6971895;28;20104;-89
2021/07/12 06:13:45;;;;;;;3.15;1.48;;;;;;;;;;6952738;28;20395;-87
2021/07/12 06:17:05;;;;;;;1.40;1.20;;;;;;;;;;6971191;28;20049;-86
2021/07/12 06:20:25;;;;;;;4.43;1.20;;;;;;;;;;6970995;28;20513;-86
2021/07/12 06:23:46;;;;;;;1.90;1.20;;;;;;;;;;6970749;28;20398;-87
2021/07/12 06:27:06;;;;;;;1.45;1.35;;;;;;;;;;6970931;28;20079;-88
2021/07/12 06:30:27;;;;;;;1.98;1.50;;;;;;;;;;6968726;28;20099;-88
2021/07/12 06:33:47;;;;;;;3.63;1.35;;;;;;;;;;6970773;28;20045;-89
2021/07/12 06:37:08;;;;;;;3.72;1.25;;;;;;;;;;6939070;28;20041;-89
2021/07/12 06:40:28;;;;;;;1.90;1.30;;;;;;;;;;6959325;28;20076;-90
2021/07/12 06:43:51;;;;;;;1.77;1.40;;;;;;;;;;6967000;28;20057;-89
2021/07/12 06:47:12;;;;;;;15.13;1.80;;;;;;;;;;6971111;28;20112;-88
2021/07/12 06:50:33;;;;;;;5.10;1.70;;;;;;;;;;6954068;28;20569;-88
2021/07/12 06:53:54;;;;;;;2.00;1.45;;;;;;;;;;6942621;28;20555;-88
2021/07/12 06:57:15;;;;;;;1.75;1.40;;;;;;;;;;6961196;28;20045;-89
2021/07/12 07:00:35;;;;;;;1.90;1.30;;;;;;;;;;6967065;28;20137;-89
2021/07/12 07:03:56;;;;;;;1.95;1.30;;;;;;;;;;6970216;28;20056;-90
2021/07/12 07:07:16;;;;;;;6.60;1.65;;;;;;;;;;6970470;28;20597;-91
2021/07/12 07:10:37;;;;;;;6.05;1.55;;;;;;;;;;6961207;28;20064;-89
2021/07/12 07:13:58;;;;;;;2.53;1.33;;;;;;;;;;6935609;28;20057;-90
2021/07/12 07:17:19;;;;;;;3.70;1.33;;;;;;;;;;6953127;28;20053;-89
2021/07/12 07:20:39;;;;;;;2.85;1.55;;;;;;;;;;6952445;28;20099;-89
2021/07/12 07:24:00;;;;;;;1.55;1.33;;;;;;;;;;6970035;28;20048;-91
2021/07/12 07:27:20;;;;;;;1.92;1.45;;;;;;;;;;6934842;28;20099;-90
2021/07/12 07:30:41;;;;;;;2.25;1.70;;;;;;;;;;6939190;28;20080;-91
2021/07/12 07:34:01;;;;;;;2.30;1.50;;;;;;;;;;6943921;28;20414;-88
2021/07/12 07:37:22;;;;;;;3.17;1.40;;;;;;;;;;6969237;28;20049;-89
2021/07/12 07:40:42;;;;;;;2.33;1.60;;;;;;;;;;6955150;28;20040;-89
2021/07/12 07:44:04;;;;;;;1.60;1.50;;;;;;;;;;6950511;28;20057;-89
2021/07/12 07:47:25;;;;;;;4.40;1.75;;;;;;;;;;6937078;28;20087;-91
2021/07/12 07:51:14;;;;;;;1.67;1.50;;;;;;;;;;6966338;28;20095;-92
2021/07/12 07:54:37;;;;;;;3.47;2.00;;;;;;;;;;6944530;28;20059;-91
2021/07/12 07:57:58;;;;;;;2.72;1.77;;;;;;;;;;6949725;28;20148;-91
2021/07/12 08:01:20;;;;;;;2.13;1.80;;;;;;;;;;6966435;28;20044;-91
2021/07/12 08:04:40;;;;;;;7.55;1.83;;;;;;;;;;6952216;28;20437;-90
2021/07/12 08:08:01;;;;;;;5.47;2.28;;;;;;;;;;6947108;28;20516;-91
2021/07/12 08:11:21;;;;;;;3.30;1.83;;;;;;;;;;6952635;28;20068;-90
2021/07/12 08:14:42;;;;;;;2.03;1.63;;;;;;;;;;6947630;28;20387;-90
2021/07/12 08:18:04;;;;;;;4.50;4.10;;;;;;;;;;6949374;28;20135;-89
2021/07/12 08:21:24;;;;;;;12.95;3.80;;;;;;;;;;6950729;28;20057;-87
2021/07/12 08:24:45;;;;;;;5.05;3.90;;;;;;;;;;6968745;28;20064;-87
2021/07/12 08:28:05;;;;;;;4.57;4.18;;;;;;;;;;6969480;28;20045;-87
2021/07/12 08:31:26;;;;;;;4.35;3.92;;;;;;;;;;6955430;28;20178;-86
2021/07/12 08:34:46;;;;;;;6.03;4.30;;;;;;;;;;6965532;28;20111;-87
2021/07/12 08:38:08;;;;;;;4.60;4.20;;;;;;;;;;6962231;28;20141;-88
2021/07/12 08:41:28;;;;;;;5.18;4.05;;;;;;;;;;6934440;28;20060;-88
2021/07/12 08:44:49;;;;;;;7.53;4.95;;;;;;;;;;6964970;28;20057;-86
2021/07/12 08:48:10;;;;;;;9.43;3.17;;;;;;;;;;6986217;28;20052;-90
2021/07/12 08:51:30;;;;;;;6.40;3.60;;;;;;;;;;6982814;28;20098;-90
2021/07/12 08:54:50;;;;;;;5.93;4.47;;;;;;;;;;6973608;28;20079;-89
2021/07/12 08:58:27;;;;;;;12.68;4.72;;;;;;;;;;6990994;28;20416;-89
2021/07/12 09:02:12;;;;;;;7.07;4.45;;;;;;;;;;6971417;28;20517;-89
2021/07/12 09:06:10;;;;;;;9.88;5.07;;;;;;;;;;6964385;28;20052;-89
2021/07/12 09:09:31;;;;;;;14.63;5.75;;;;;;;;;;6969280;28;20079;-89
2021/07/12 09:12:51;;;;;;;10.15;5.57;;;;;;;;;;6947159;28;20052;-89
2021/07/12 09:16:56;;;;;;;13.85;5.47;;;;;;;;;;6973094;28;20450;-90
2021/07/12 09:20:31;;;;;;;16.15;6.03;;;;;;;;;;6908934;28;20116;-91
2021/07/12 09:23:51;;;;;;;13.98;6.05;;;;;;;;;;6893063;28;20605;-91
2021/07/12 09:27:14;;;;;;;15.13;6.82;;;;;;;;;;6923084;28;20084;-89
2021/07/12 09:30:35;;;;;;;12.82;6.15;;;;;;;;;;6870634;28;20045;-89
2021/07/12 09:33:55;;;;;;;10.57;5.40;;;;;;;;;;6891205;28;20112;-89
2021/07/12 09:37:18;;;;;;;15.07;6.35;;;;;;;;;;6884581;28;20053;-90
2021/07/12 09:40:38;;;;;;;17.98;6.25;;;;;;;;;;6916339;28;20458;-89
2021/07/12 09:44:00;;;;;;;12.65;6.30;;;;;;;;;;6891999;28;20495;-87
2021/07/12 09:47:23;;;;;;;14.60;5.97;;;;;;;;;;6883258;28;20046;-89
2021/07/12 09:50:48;;;;;;;12.57;6.15;;;;;;;;;;6957696;28;20441;-90
2021/07/12 09:54:15;;;;;;;11.30;5.78;;;;;;;;;;6976036;28;20048;-92
2021/07/12 09:57:36;;;;;;;9.48;5.65;;;;;;;;;;6971387;28;20509;-95
2021/07/12 10:00:56;;;;;;;10.77;5.18;;;;;;;;;;6960253;28;20136;-92
2021/07/12 10:04:17;;;;;;;8.30;5.50;;;;;;;;;;6976121;28;20053;-86
2021/07/12 10:07:38;;;;;;;9.73;5.25;;;;;;;;;;6976324;28;20473;-89
2021/07/12 10:10:58;;;;;;;7.15;5.50;;;;;;;;;;6974699;28;20041;-88
2021/07/12 10:14:20;;;;;;;8.80;5.10;;;;;;;;;;6964064;28;20083;-87
2021/07/12 10:17:42;;;;;;;10.43;5.22;;;;;;;;;;6972737;28;20056;-88
2021/07/12 10:21:02;;;;;;;8.63;5.18;;;;;;;;;;6993217;28;20036;-87
2021/07/12 10:24:27;;;;;;;8.52;4.85;;;;;;;;;;6990074;28;20063;-88
2021/07/12 10:28:12;;;;;;;8.18;5.20;;;;;;;;;;6972720;28;20048;-87
2021/07/12 10:31:32;;;;;;;11.15;4.47;;;;;;;;;;6997641;28;20041;-87
2021/07/12 10:34:55;;;;;;;7.53;4.78;;;;;;;;;;6980416;28;20469;-86
2021/07/12 10:38:18;;;;;;;6.03;4.55;;;;;;;;;;6999932;28;20048;-88
2021/07/12 10:41:47;;;;;;;6.63;4.55;;;;;;;;;;6998934;28;20045;-86
2021/07/12 10:45:08;;;;;;;6.10;4.75;;;;;;;;;;6965582;28;20418;-88
2021/07/12 10:48:37;;;;;;;5.78;4.68;;;;;;;;;;7000527;28;20055;-89
2021/07/12 10:51:57;;;;;;;6.90;4.40;;;;;;;;;;6985883;28;20048;-88
2021/07/12 10:55:33;;;;;;;7.45;4.75;;;;;;;;;;6998268;28;20080;-88
2021/07/12 10:58:59;;;;;;;6.68;4.63;;;;;;;;;;6997830;28;20048;-87
2021/07/12 11:02:20;;;;;;;5.65;4.15;;;;;;;;;;6994919;28;21017;-86
2021/07/12 11:05:50;;;;;;;7.37;4.43;;;;;;;;;;6998555;28;20055;-85
2021/07/12 11:09:10;;;;;;;7.85;4.85;;;;;;;;;;6998711;28;20457;-87
2021/07/12 11:12:40;;;;;;;5.85;4.40;;;;;;;;;;7000035;28;20069;-88
2021/07/12 11:16:15;;;;;;;3.58;3.20;;;;;;;;;;6962938;28;20060;-89
2021/07/12 11:19:43;;;;;;;5.30;4.03;;;;;;;;;;6998778;28;20070;-87
2021/07/12 11:23:03;;;;;;;5.93;4.15;;;;;;;;;;6980684;28;20384;-87
2021/07/12 11:26:24;;;;;;;6.00;3.95;;;;;;;;;;6998663;28;20478;-87
2021/07/12 11:29:44;;;;;;;5.45;3.97;;;;;;;;;;6991541;28;20422;-87
2021/07/12 11:33:05;;;;;;;4.88;3.80;;;;;;;;;;6996630;28;20574;-88
2021/07/12 11:36:25;;;;;;;5.45;4.32;;;;;;;;;;6996590;28;20057;-88
2021/07/12 11:39:51;;;;;;;5.10;3.97;;;;;;;;;;6979558;28;20044;-88
2021/07/12 11:43:13;;;;;;;5.32;4.13;;;;;;;;;;6989882;28;20139;-88
2021/07/12 11:46:33;;;;;;;5.50;4.35;;;;;;;;;;6971180;28;20053;-88
2021/07/12 11:50:04;;;;;;;4.45;4.05;;;;;;;;;;6969872;28;20064;-87
2021/07/12 11:53:25;;;;;;;5.82;3.78;;;;;;;;;;6964246;28;20045;-88
2021/07/12 11:57:15;;;;;;;5.05;3.67;;;;;;;;;;6992696;28;20131;-88
2021/07/12 12:00:37;;;;;;;6.15;4.03;;;;;;;;;;6964525;28;20505;-89
2021/07/12 12:04:02;;;;;;;5.53;3.70;;;;;;;;;;6977691;28;20056;-88
2021/07/12 12:07:23;;;;;;;4.07;3.70;;;;;;;;;;6972686;28;20395;-89
2021/07/12 12:10:44;;;;;;;4.85;3.70;;;;;;;;;;6994633;28;20560;-88
2021/07/12 12:14:05;;;;;;;6.07;3.65;;;;;;;;;;6964980;28;20496;-89
2021/07/12 12:17:26;;;;;;;3.42;3.05;;;;;;;;;;6989240;28;20551;-88
2021/07/12 12:20:48;;;;;;;8.38;3.90;;;;;;;;;;6991662;28;20095;-87
2021/07/12 12:24:10;;;;;;;5.70;3.90;;;;;;;;;;6972973;28;20060;-88
2021/07/12 12:27:31;;;;;;;6.20;4.07;;;;;;;;;;6979755;28;20150;-88
2021/07/12 12:30:53;;;;;;;4.47;3.72;;;;;;;;;;6992747;28;20040;-91
2021/07/12 12:34:14;;;;;;;4.47;3.50;;;;;;;;;;6978186;28;20052;-91
2021/07/12 12:37:40;;;;;;;5.60;3.33;;;;;;;;;;6974560;28;20048;-91
2021/07/12 12:41:07;;;;;;;5.38;3.40;;;;;;;;;;6972571;28;20084;-89
2021/07/12 12:44:37;;;;;;;4.50;3.38;;;;;;;;;;6971915;28;20044;-89
2021/07/12 12:47:58;;;;;;;3.45;3.15;;;;;;;;;;6998197;28;20062;-90
2021/07/12 12:51:26;;;;;;;4.05;3.30;;;;;;;;;;6960447;28;20398;-88
2021/07/12 12:54:50;;;;;;;3.53;3.03;;;;;;;;;;6955598;28;20067;-88
2021/07/12 12:58:11;;;;;;;4.00;3.33;;;;;;;;;;6973531;28;20375;-90
2021/07/12 13:01:42;;;;;;;3.75;2.92;;;;;;;;;;6973985;28;20048;-87
2021/07/12 13:05:07;;;;;;;3.42;2.70;;;;;;;;;;6972411;28;20059;-88
2021/07/12 13:08:29;;;;;;;3.80;3.05;;;;;;;;;;6961110;28;20052;-88
2021/07/12 13:12:04;;;;;;;3.83;3.35;;;;;;;;;;6993518;28;20040;-88
2021/07/12 13:15:26;;;;;;;6.82;3.53;;;;;;;;;;6991639;28;20048;-87
2021/07/12 13:18:50;;;;;;;6.40;3.08;;;;;;;;;;6955815;28;20052;-87
2021/07/12 13:22:25;;;;;;;2.75;2.55;;;;;;;;;;6988885;28;20083;-88
2021/07/12 13:25:45;;;;;;;4.00;3.10;;;;;;;;;;6973365;28;20105;-86
2021/07/12 13:29:06;;;;;;;13.77;3.30;;;;;;;;;;7004611;22;20056;-82
2021/07/12 13:32:27;;;;;;;3.92;3.33;;;;;;;;;;6968543;28;20088;-83
2021/07/12 13:35:48;;;;;;;3.83;2.80;;;;;;;;;;6967357;28;20402;-81
2021/07/12 13:39:08;;;;;;;5.28;2.97;;;;;;;;;;6985053;28;20052;-80
2021/07/12 13:42:29;;;;;;;3.53;2.92;;;;;;;;;;6998339;28;20063;-81
2021/07/12 13:45:49;;;;;;;3.92;3.40;;;;;;;;;;6998777;28;20049;-81
2021/07/12 13:49:10;;;;;;;3.67;3.05;;;;;;;;;;6996507;28;20376;-82
2021/07/12 13:52:30;;;;;;;4.32;3.00;;;;;;;;;;6996164;28;20524;-80
2021/07/12 13:55:51;;;;;;;3.15;2.85;;;;;;;;;;6997071;28;20041;-80
2021/07/12 13:59:11;;;;;;;3.25;2.95;;;;;;;;;;6997438;28;20166;-79
2021/07/12 14:02:31;;;;;;;6.32;3.20;;;;;;;;;;6998210;28;20052;-80
2021/07/12 14:05:52;;;;;;;3.10;2.80;;;;;;;;;;7000608;28;20037;-81
2021/07/12 14:09:12;;;;;;;4.15;2.80;;;;;;;;;;7003158;28;20063;-81
2021/07/12 14:12:33;;;;;;;3.30;3.00;;;;;;;;;;7001208;28;20549;-81
2021/07/12 14:15:53;;;;;;;5.40;3.00;;;;;;;;;;6996583;28;20482;-81
2021/07/12 14:19:13;;;;;;;4.20;2.72;;;;;;;;;;7003841;28;20053;-80
2021/07/12 14:22:34;;;;;;;4.32;2.70;;;;;;;;;;7000322;28;20048;-81
2021/07/12 14:25:54;;;;;;;2.90;2.53;;;;;;;;;;7000044;28;20040;-86
2021/07/12 14:29:16;;;;;;;3.55;2.60;;;;;;;;;;7000600;28;20056;-86
2021/07/12 14:32:37;;;;;;;2.90;2.70;;;;;;;;;;6966068;28;20040;-81
2021/07/12 14:35:57;;;;;;;3.75;2.90;;;;;;;;;;6999932;28;20045;-82
2021/07/12 14:39:18;;;;;;;4.32;2.70;;;;;;;;;;6999104;28;20052;-82
2021/07/12 14:42:38;;;;;;;4.07;2.90;;;;;;;;;;6998524;28;20102;-81
2021/07/12 14:45:59;;;;;;;4.70;2.83;;;;;;;;;;6999683;28;20099;-80
2021/07/12 14:49:21;;;;;;;3.92;2.42;;;;;;;;;;6999230;28;20055;-81
2021/07/12 14:52:42;;;;;;;3.83;3.05;;;;;;;;;;6999143;28;20063;-80
2021/07/12 14:56:03;;;;;;;3.85;2.70;;;;;;;;;;6998315;28;20051;-81
2021/07/12 14:59:24;;;;;;;3.35;2.80;;;;;;;;;;7001050;28;20076;-82
2021/07/12 15:02:45;;;;;;;5.32;2.60;;;;;;;;;;6999098;28;20563;-80
2021/07/12 15:06:06;;;;;;;2.83;2.60;;;;;;;;;;6999303;28;20533;-81
2021/07/12 15:09:26;;;;;;;2.50;2.30;;;;;;;;;;6999210;28;20055;-80
2021/07/12 15:12:47;;;;;;;2.58;2.38;;;;;;;;;;7000307;28;20355;-81
2021/07/12 15:16:07;;;;;;;2.80;2.60;;;;;;;;;;6997758;28;20048;-81
2021/07/12 15:19:28;;;;;;;2.97;2.65;;;;;;;;;;6999101;28;20048;-81
2021/07/12 15:22:48;;;;;;;3.45;2.78;;;;;;;;;;6998857;28;20052;-81
2021/07/12 15:26:08;;;;;;;2.80;2.20;;;;;;;;;;6998975;28;20055;-81
2021/07/12 15:29:29;;;;;;;3.08;2.35;;;;;;;;;;6998499;28;20095;-81
2021/07/12 15:32:49;;;;;;;2.95;2.60;;;;;;;;;;7001069;28;20394;-80
2021/07/12 15:36:10;;;;;;;3.45;2.72;;;;;;;;;;7001673;28;20048;-80
2021/07/12 15:39:30;;;;;;;2.60;2.40;;;;;;;;;;6984503;28;20056;-81
2021/07/12 15:42:51;;;;;;;2.85;2.50;;;;;;;;;;7001928;28;20072;-80
2021/07/12 15:46:11;;;;;;;3.97;2.70;;;;;;;;;;7002817;28;20055;-77
2021/07/12 15:49:32;;;;;;;4.53;2.50;;;;;;;;;;6983993;28;20094;-79
2021/07/12 15:52:53;;;;;;;2.45;2.25;;;;;;;;;;6983363;28;20044;-81
2021/07/12 15:56:13;;;;;;;2.47;2.20;;;;;;;;;;7001103;28;20175;-81
2021/07/12 15:59:34;;;;;;;4.40;2.30;;;;;;;;;;6998141;28;20049;-81
2021/07/12 16:02:54;;;;;;;2.63;2.42;;;;;;;;;;6998101;28;20102;-83
2021/07/12 16:06:14;;;;;;;2.55;2.22;;;;;;;;;;6997742;28;20048;-81
2021/07/12 16:09:35;;;;;;;2.80;2.47;;;;;;;;;;6998145;28;20059;-81
2021/07/12 16:12:55;;;;;;;2.55;2.25;;;;;;;;;;6997904;28;20453;-80
2021/07/12 16:16:16;;;;;;;2.95;2.55;;;;;;;;;;6997433;28;20063;-80
2021/07/12 16:19:37;;;;;;;3.05;2.75;;;;;;;;;;6979645;28;20059;-81
2021/07/12 16:22:57;;;;;;;2.90;2.55;;;;;;;;;;6997405;28;20040;-81
2021/07/12 16:26:19;;;;;;;2.50;2.30;;;;;;;;;;6998342;28;20049;-79
2021/07/12 16:29:41;;;;;;;3.15;2.28;;;;;;;;;;6999066;28;20051;-80
2021/07/12 16:33:03;;;;;;;3.55;2.33;;;;;;;;;;6999271;28;20406;-78
2021/07/12 16:36:24;;;;;;;2.58;2.38;;;;;;;;;;7000362;28;20091;-79
2021/07/12 16:39:44;;;;;;;3.03;2.42;;;;;;;;;;6999872;28;20076;-80
2021/07/12 16:43:05;;;;;;;2.35;2.15;;;;;;;;;;7000221;28;20044;-80
2021/07/12 16:46:25;;;;;;;2.50;2.30;;;;;;;;;;6999180;28;20048;-81
2021/07/12 16:49:47;;;;;;;3.10;2.50;;;;;;;;;;7000031;28;20049;-79
2021/07/12 16:53:07;;;;;;;2.33;2.13;;;;;;;;;;6998653;28;20063;-81
2021/07/12 16:56:28;;;;;;;2.97;2.17;;;;;;;;;;7000903;28;20045;-80
2021/07/12 16:59:51;;;;;;;2.38;2.13;;;;;;;;;;7000587;28;20089;-82
2021/07/12 17:03:11;;;;;;;2.70;2.20;;;;;;;;;;7000543;28;20054;-80
2021/07/12 17:06:32;;;;;;;2.85;2.05;;;;;;;;;;7001111;28;20052;-80
2021/07/12 17:09:52;;;;;;;2.67;2.45;;;;;;;;;;6999741;28;20474;-80
2021/07/12 17:13:12;;;;;;;2.50;2.30;;;;;;;;;;6989054;28;20382;-80
2021/07/12 17:16:33;;;;;;;4.00;2.20;;;;;;;;;;6989861;28;20044;-80
2021/07/12 17:19:53;;;;;;;2.47;2.28;;;;;;;;;;6995707;28;20477;-82
2021/07/12 17:23:14;;;;;;;3.88;2.95;;;;;;;;;;6995363;28;20071;-82
2021/07/12 17:26:35;;;;;;;4.10;3.00;;;;;;;;;;6995219;28;20482;-82
2021/07/12 17:29:55;;;;;;;3.80;2.95;;;;;;;;;;6993223;28;20057;-82
2021/07/12 17:33:16;;;;;;;3.15;2.40;;;;;;;;;;6994449;28;20040;-83
2021/07/12 17:36:36;;;;;;;4.15;2.90;;;;;;;;;;6994903;28;20103;-82
2021/07/12 17:39:57;;;;;;;6.30;2.90;;;;;;;;;;6982677;28;20127;-81
2021/07/12 17:43:17;;;;;;;2.97;2.67;;;;;;;;;;6999737;28;20041;-82
2021/07/12 17:46:39;;;;;;;3.47;2.40;;;;;;;;;;6999856;28;20075;-83
2021/07/12 17:50:01;;;;;;;3.53;2.40;;;;;;;;;;6998926;28;20040;-82
2021/07/12 17:53:22;;;;;;;2.70;2.50;;;;;;;;;;6999520;28;20067;-82
2021/07/12 17:56:42;;;;;;;5.85;2.70;;;;;;;;;;6998738;28;20123;-82
2021/07/12 18:00:06;;;;;;;3.95;2.88;;;;;;;;;;6999839;28;20087;-82
2021/07/12 18:03:27;;;;;;;2.90;2.50;;;;;;;;;;6999204;28;20041;-84
2021/07/12 18:06:48;;;;;;;3.40;2.72;;;;;;;;;;6999527;28;20077;-82
2021/07/12 18:10:09;;;;;;;3.67;2.83;;;;;;;;;;6999143;28;20041;-82
2021/07/12 18:13:30;;;;;;;4.00;2.70;;;;;;;;;;6999090;28;20049;-82
2021/07/12 18:16:50;;;;;;;3.85;2.55;;;;;;;;;;6998310;28;20085;-82
2021/07/12 18:20:15;;;;;;;5.43;2.05;;;;;;;;;;6992728;28;20505;-82
2021/07/12 18:23:36;;;;;;;2.17;1.98;;;;;;;;;;6990688;28;20060;-82
2021/07/12 18:26:56;;;;;;;3.22;2.45;;;;;;;;;;6992062;28;20565;-83
2021/07/12 18:30:17;;;;;;;4.28;2.70;;;;;;;;;;6994478;28;20172;-83
2021/07/12 18:33:37;;;;;;;2.20;2.00;;;;;;;;;;6996642;28;20049;-82
2021/07/12 18:36:57;;;;;;;4.20;2.78;;;;;;;;;;7003314;28;20048;-82
2021/07/12 18:40:18;;;;;;;3.17;2.40;;;;;;;;;;6998581;28;20057;-83
2021/07/12 18:43:41;;;;;;;5.47;2.40;;;;;;;;;;6998617;28;20045;-83
2021/07/12 18:47:07;;;;;;;5.05;2.45;;;;;;;;;;6996280;28;20045;-82
2021/07/12 18:50:29;;;;;;;3.33;2.35;;;;;;;;;;6998489;28;20048;-83
2021/07/12 18:53:49;;;;;;;3.63;2.22;;;;;;;;;;6996309;28;20060;-83
2021/07/12 18:57:09;;;;;;;4.63;2.58;;;;;;;;;;6998767;28;20055;-83
2021/07/12 19:00:32;;;;;;;3.63;2.50;;;;;;;;;;6998057;28;20068;-83
2021/07/12 19:03:52;;;;;;;5.68;2.53;;;;;;;;;;6998080;28;20076;-83
2021/07/12 19:07:13;;;;;;;4.80;2.70;;;;;;;;;;6997918;28;20049;-83
2021/07/12 19:10:33;;;;;;;6.75;2.45;;;;;;;;;;6997315;28;20076;-83
2021/07/12 19:13:54;;;;;;;6.68;2.55;;;;;;;;;;6997636;28;20036;-83
2021/07/12 19:17:14;;;;;;;2.53;2.33;;;;;;;;;;6998118;28;20045;-83
2021/07/12 19:20:35;;;;;;;3.90;2.65;;;;;;;;;;6995905;28;20090;-82
2021/07/12 19:23:55;;;;;;;6.30;3.05;;;;;;;;;;6998066;28;20052;-83
2021/07/12 19:27:16;;;;;;;6.72;2.92;;;;;;;;;;7000217;28;20044;-82
2021/07/12 19:30:38;;;;;;;5.15;2.35;;;;;;;;;;6996749;28;20051;-83
2021/07/12 19:33:59;;;;;;;4.15;2.70;;;;;;;;;;6997948;28;20052;-82
2021/07/12 19:37:20;;;;;;;5.68;2.63;;;;;;;;;;6993634;28;20119;-83
2021/07/12 19:40:40;;;;;;;6.15;2.60;;;;;;;;;;6995868;28;20181;-84
2021/07/12 19:44:01;;;;;;;4.80;2.40;;;;;;;;;;6997356;28;20048;-82
2021/07/12 19:47:22;;;;;;;5.60;2.83;;;;;;;;;;6995961;28;20048;-82
2021/07/12 19:50:42;;;;;;;5.22;3.25;;;;;;;;;;6996655;28;20080;-82
2021/07/12 19:54:02;;;;;;;9.38;2.65;;;;;;;;;;6996581;28;20154;-83
2021/07/12 19:57:23;;;;;;;5.18;2.60;;;;;;;;;;6996590;28;20037;-82
2021/07/12 20:00:45;;;;;;;5.07;2.75;;;;;;;;;;6996084;28;20037;-83
2021/07/12 20:04:05;;;;;;;13.65;3.50;;;;;;;;;;6995365;28;20060;-82
2021/07/12 20:07:25;;;;;;;4.43;2.85;;;;;;;;;;6996414;28;20049;-82
2021/07/12 20:10:46;;;;;;;7.63;3.38;;;;;;;;;;6996681;28;20061;-83
2021/07/12 20:14:07;;;;;;;3.53;2.70;;;;;;;;;;6996495;28;20067;-82